Time;durP1;ratioP1;P1;durP2;ratioP2;P2;SDS_P1;SDS_P2;PMS_P1;PMS_P2;Temp;Humidity;BMP_temperature;BMP_pressure;BME280_temperature;BME280_humidity;BME280_pressure;Samples;Min_cycle;Max_cycle;Signal;HPM_P1;HPM_P2
2024/02/23 00:01:15;;;;;;;13.67;0.80;;;7.60;3.90;;;;;;5021342;28;20270;-81
2024/02/23 00:03:45;;;;;;;13.67;1.03;;;7.60;14.50;;;;;;5038576;28;20256;-81
2024/02/23 00:06:10;;;;;;;13.60;0.90;;;7.60;8.60;;;;;;5038013;28;20174;-81
2024/02/23 00:08:37;;;;;;;16.10;1.10;;;7.60;5.00;;;;;;5020155;28;20316;-81
2024/02/23 00:11:03;;;;;;;14.70;1.15;;;7.60;11.70;;;;;;5037634;28;20186;-81
2024/02/23 00:13:29;;;;;;;13.80;0.93;;;7.50;26.10;;;;;;5037122;28;20191;-81
2024/02/23 00:15:54;;;;;;;14.87;1.40;;;7.50;15.90;;;;;;5037239;28;20472;-81
2024/02/23 00:18:20;;;;;;;13.57;0.90;;;7.50;15.80;;;;;;5037130;28;20180;-81
2024/02/23 00:20:47;;;;;;;14.83;1.23;;;7.60;19.20;;;;;;5035661;28;20255;-81
2024/02/23 00:23:12;;;;;;;14.30;1.15;;;7.50;17.20;;;;;;5036083;28;20170;-81
2024/02/23 00:25:38;;;;;;;13.50;0.80;;;7.50;21.50;;;;;;5038366;28;20169;-81
2024/02/23 00:28:04;;;;;;;14.80;1.10;;;7.50;30.30;;;;;;5038130;28;20170;-81
2024/02/23 00:30:30;;;;;;;16.10;1.58;;;7.40;44.90;;;;;;5038186;28;20265;-81
2024/02/23 00:32:55;;;;;;;15.60;0.97;;;7.40;54.10;;;;;;5038717;28;20719;-81
2024/02/23 00:35:21;;;;;;;14.27;1.20;;;7.40;64.20;;;;;;5025709;28;20189;-82
2024/02/23 00:37:47;;;;;;;13.43;1.00;;;7.30;75.00;;;;;;5043358;28;20631;-81
2024/02/23 00:40:13;;;;;;;13.70;1.07;;;7.30;75.00;;;;;;5042979;28;20190;-81
2024/02/23 00:42:38;;;;;;;14.20;1.38;;;7.20;84.70;;;;;;5040790;28;20166;-81
2024/02/23 00:45:05;;;;;;;14.90;1.10;;;7.10;86.00;;;;;;5043254;28;20165;-82
2024/02/23 00:47:30;;;;;;;13.95;1.05;;;7.10;82.80;;;;;;5041961;28;20166;-80
2024/02/23 00:49:56;;;;;;;13.57;1.10;;;7.00;74.70;;;;;;5039350;28;20193;-81
2024/02/23 00:52:22;;;;;;;17.33;1.23;;;6.90;69.50;;;;;;5039017;28;20185;-81
2024/02/23 00:54:47;;;;;;;14.30;1.20;;;6.90;62.70;;;;;;5038893;28;20228;-81
2024/02/23 00:57:13;;;;;;;14.30;1.37;;;6.90;58.50;;;;;;5039234;28;20162;-80
2024/02/23 00:59:39;;;;;;;14.07;1.30;;;6.80;46.30;;;;;;5038137;28;20596;-80
2024/02/23 01:02:05;;;;;;;14.90;1.17;;;6.80;35.60;;;;;;5038745;28;20169;-80
2024/02/23 01:04:30;;;;;;;13.68;1.15;;;6.80;32.00;;;;;;5038068;28;20192;-81
2024/02/23 01:06:57;;;;;;;14.50;1.10;;;6.80;32.50;;;;;;5038746;28;20162;-81
2024/02/23 01:09:23;;;;;;;14.20;1.00;;;6.80;26.10;;;;;;5039161;28;20162;-81
2024/02/23 01:11:49;;;;;;;14.40;1.10;;;6.70;27.80;;;;;;5039032;28;20219;-81
2024/02/23 01:14:14;;;;;;;13.93;1.00;;;6.80;24.30;;;;;;5038595;28;20162;-81
2024/02/23 01:16:40;;;;;;;14.03;0.97;;;6.70;21.40;;;;;;5020795;28;20201;-80
2024/02/23 01:19:06;;;;;;;14.30;1.20;;;6.70;27.00;;;;;;5038627;28;20177;-81
2024/02/23 01:21:31;;;;;;;13.47;0.80;;;6.70;23.00;;;;;;5039081;28;20185;-81
2024/02/23 01:23:57;;;;;;;16.37;1.40;;;6.60;26.10;;;;;;5038914;28;20166;-81
2024/02/23 01:26:23;;;;;;;13.90;1.07;;;6.70;25.30;;;;;;5039133;28;20193;-81
2024/02/23 01:28:49;;;;;;;14.40;1.15;;;6.70;29.40;;;;;;5039078;28;20170;-80
2024/02/23 01:31:15;;;;;;;16.87;1.60;;;6.70;25.60;;;;;;5038740;28;20188;-80
2024/02/23 01:33:40;;;;;;;13.93;1.00;;;6.70;23.70;;;;;;5021002;28;20205;-81
2024/02/23 01:36:07;;;;;;;18.20;1.20;;;6.60;23.20;;;;;;5039277;28;20208;-81
2024/02/23 01:38:34;;;;;;;14.60;1.00;;;6.60;35.50;;;;;;5039465;28;20162;-81
2024/02/23 01:41:00;;;;;;;16.48;1.65;;;6.60;29.50;;;;;;5038661;28;20186;-81
2024/02/23 01:43:25;;;;;;;15.75;1.58;;;6.60;33.90;;;;;;5038905;28;20203;-80
2024/02/23 01:45:51;;;;;;;14.10;1.33;;;6.50;26.70;;;;;;5038182;28;20173;-80
2024/02/23 01:48:17;;;;;;;14.30;1.45;;;6.60;27.10;;;;;;5037553;28;20193;-81
2024/02/23 01:50:44;;;;;;;14.60;1.40;;;6.50;29.10;;;;;;5019864;28;20190;-81
2024/02/23 01:53:12;;;;;;;13.85;1.08;;;6.50;18.30;;;;;;5037960;28;20288;-80
2024/02/23 01:55:41;;;;;;;19.00;2.17;;;6.50;16.60;;;;;;5038947;28;20235;-81
2024/02/23 01:58:07;;;;;;;18.20;1.50;;;6.50;18.70;;;;;;5039164;28;20194;-82
2024/02/23 02:00:34;;;;;;;16.02;1.80;;;6.50;13.00;;;;;;5040162;28;20178;-80
2024/02/23 02:02:59;;;;;;;14.82;1.20;;;6.40;15.60;;;;;;5040746;28;20232;-82
2024/02/23 02:05:25;;;;;;;14.07;1.43;;;6.40;14.00;;;;;;5040880;28;20178;-82
2024/02/23 02:07:58;;;;;;;15.80;1.37;;;6.40;9.40;;;;;;5023002;28;20169;-82
2024/02/23 02:10:24;;;;;;;15.55;1.52;;;6.50;5.30;;;;;;5022498;28;20432;-82
2024/02/23 02:12:50;;;;;;;15.20;1.23;;;6.40;6.30;;;;;;5040451;28;20170;-82
2024/02/23 02:15:15;;;;;;;14.23;1.10;;;6.40;4.60;;;;;;5040517;28;20188;-81
2024/02/23 02:17:41;;;;;;;15.30;1.30;;;6.40;7.90;;;;;;5039807;28;20180;-81
2024/02/23 02:20:11;;;;;;;15.53;1.53;;;6.40;7.40;;;;;;5039666;28;20204;-81
2024/02/23 02:22:40;;;;;;;14.57;1.23;;;6.40;1.80;;;;;;5039554;28;20153;-81
2024/02/23 02:25:06;;;;;;;14.93;1.30;;;6.40;1.00;;;;;;5040095;28;20176;-81
2024/02/23 02:27:32;;;;;;;15.77;1.88;;;6.40;1.00;;;;;;5040504;28;20658;-82
2024/02/23 02:29:58;;;;;;;14.30;1.42;;;6.30;1.50;;;;;;5040631;28;20666;-81
2024/02/23 02:32:24;;;;;;;15.93;1.37;;;6.20;10.30;;;;;;5022645;28;20180;-81
2024/02/23 02:34:50;;;;;;;17.37;2.03;;;6.20;12.40;;;;;;5039720;28;20440;-81
2024/02/23 02:37:15;;;;;;;14.47;1.20;;;6.30;9.70;;;;;;5040857;28;20166;-82
2024/02/23 02:39:41;;;;;;;15.00;1.30;;;6.30;12.40;;;;;;5038792;28;20168;-81
2024/02/23 02:42:07;;;;;;;17.10;2.33;;;6.30;12.90;;;;;;5039744;28;20240;-81
2024/02/23 02:44:32;;;;;;;15.87;1.70;;;6.30;5.10;;;;;;5021588;28;20405;-81
2024/02/23 02:46:58;;;;;;;14.60;1.37;;;6.30;5.30;;;;;;5039443;28;20487;-82
2024/02/23 02:49:24;;;;;;;19.77;1.47;;;6.30;3.40;;;;;;5039870;28;20240;-81
2024/02/23 02:51:50;;;;;;;15.30;1.70;;;6.30;1.00;;;;;;5038981;28;20686;-81
2024/02/23 02:54:16;;;;;;;20.53;1.90;;;6.20;1.00;;;;;;5039417;28;20697;-81
2024/02/23 02:56:46;;;;;;;18.65;2.00;;;6.30;1.00;;;;;;5038723;28;20448;-81
2024/02/23 02:59:12;;;;;;;15.55;1.17;;;6.30;1.00;;;;;;5040006;28;20162;-81
2024/02/23 03:01:40;;;;;;;14.05;1.25;;;6.20;1.00;;;;;;5039041;28;20219;-81
2024/02/23 03:04:08;;;;;;;15.70;1.45;;;6.20;1.00;;;;;;5038868;28;20639;-81
2024/02/23 03:06:33;;;;;;;15.63;1.33;;;6.20;2.00;;;;;;5039029;28;20220;-81
2024/02/23 03:09:02;;;;;;;14.43;1.00;;;6.20;1.00;;;;;;5020664;28;20264;-81
2024/02/23 03:11:28;;;;;;;14.90;1.80;;;6.10;1.00;;;;;;5037177;28;20190;-81
2024/02/23 03:13:54;;;;;;;15.73;1.60;;;6.20;1.00;;;;;;5037493;28;20165;-81
2024/02/23 03:16:23;;;;;;;14.07;1.07;;;6.20;1.00;;;;;;5036965;28;20221;-80
2024/02/23 03:18:49;;;;;;;15.52;1.40;;;6.20;1.00;;;;;;5036497;28;20643;-81
2024/02/23 03:21:15;;;;;;;16.50;1.73;;;6.10;1.00;;;;;;5036445;28;20231;-80
2024/02/23 03:23:41;;;;;;;14.80;1.30;;;6.10;1.00;;;;;;5036134;28;20751;-80
2024/02/23 03:26:08;;;;;;;14.30;1.47;;;6.20;1.00;;;;;;5036458;28;20169;-81
2024/02/23 03:28:33;;;;;;;19.33;1.95;;;6.10;1.00;;;;;;5036170;28;20965;-80
2024/02/23 03:31:00;;;;;;;14.07;1.10;;;6.00;1.00;;;;;;5036529;28;20216;-81
2024/02/23 03:33:26;;;;;;;13.88;1.23;;;6.00;1.00;;;;;;5036398;28;20404;-81
2024/02/23 03:35:52;;;;;;;14.15;1.02;;;6.00;1.00;;;;;;5018649;28;20277;-81
2024/02/23 03:38:17;;;;;;;15.80;1.10;;;6.00;1.00;;;;;;5036908;28;20200;-80
2024/02/23 03:40:43;;;;;;;14.07;1.30;;;6.00;1.00;;;;;;5036366;28;20178;-80
2024/02/23 03:43:09;;;;;;;14.60;1.40;;;6.00;1.00;;;;;;5036732;28;20170;-81
2024/02/23 03:45:37;;;;;;;14.70;1.17;;;6.00;1.00;;;;;;5037401;28;20465;-80
2024/02/23 03:48:04;;;;;;;16.17;1.17;;;6.00;3.00;;;;;;5036687;28;20193;-80
2024/02/23 03:50:30;;;;;;;13.90;0.98;;;6.10;5.00;;;;;;5037137;28;20201;-81
2024/02/23 03:52:56;;;;;;;18.23;1.30;;;6.00;1.00;;;;;;5035202;28;20180;-80
2024/02/23 03:55:22;;;;;;;14.10;1.10;;;6.00;1.00;;;;;;5036837;28;20588;-80
2024/02/23 03:57:48;;;;;;;16.88;1.55;;;5.90;1.00;;;;;;5036172;28;20174;-81
2024/02/23 04:00:14;;;;;;;14.77;1.30;;;5.90;1.00;;;;;;5034372;28;20182;-81
2024/02/23 04:02:40;;;;;;;15.23;1.58;;;5.90;3.50;;;;;;5036111;28;20454;-80
2024/02/23 04:05:06;;;;;;;14.30;1.20;;;5.90;2.50;;;;;;5034961;28;20256;-80
2024/02/23 04:07:32;;;;;;;15.63;1.45;;;5.90;8.90;;;;;;5019385;28;20546;-81
2024/02/23 04:09:58;;;;;;;15.10;1.10;;;6.00;9.30;;;;;;5039004;28;20209;-80
2024/02/23 04:12:24;;;;;;;15.00;0.95;;;6.00;3.40;;;;;;5038877;28;20181;-81
2024/02/23 04:14:50;;;;;;;19.07;1.30;;;6.00;4.60;;;;;;5040597;28;20208;-81
2024/02/23 04:17:16;;;;;;;15.57;1.30;;;5.90;7.90;;;;;;5040222;28;20793;-80
2024/02/23 04:19:42;;;;;;;17.27;1.58;;;5.80;9.30;;;;;;5041520;28;20444;-81
2024/02/23 04:22:12;;;;;;;17.50;1.40;;;5.80;9.00;;;;;;5043671;28;20173;-81
2024/02/23 04:24:39;;;;;;;15.50;1.42;;;5.70;12.50;;;;;;5041148;28;20913;-81
2024/02/23 04:27:05;;;;;;;16.60;1.90;;;5.70;13.40;;;;;;5041483;28;20169;-81
2024/02/23 04:29:32;;;;;;;14.45;1.17;;;5.60;12.60;;;;;;5042914;28;20158;-81
2024/02/23 04:32:00;;;;;;;15.75;1.40;;;5.60;16.00;;;;;;5040922;28;20638;-82
2024/02/23 04:34:26;;;;;;;16.08;1.20;;;5.60;18.70;;;;;;5041053;28;20198;-81
2024/02/23 04:36:51;;;;;;;14.30;1.00;;;5.70;20.30;;;;;;5042859;28;20177;-81
2024/02/23 04:39:17;;;;;;;14.20;1.40;;;5.70;15.30;;;;;;5042352;28;20161;-81
2024/02/23 04:41:43;;;;;;;14.63;1.30;;;5.70;15.40;;;;;;5041383;28;20182;-81
2024/02/23 04:44:08;;;;;;;16.23;1.50;;;5.70;19.90;;;;;;5042381;28;20701;-81
2024/02/23 04:46:34;;;;;;;20.43;1.53;;;5.70;15.60;;;;;;5041964;28;20623;-81
2024/02/23 04:49:01;;;;;;;17.93;1.67;;;5.70;19.30;;;;;;5042663;28;20174;-81
2024/02/23 04:51:27;;;;;;;19.02;2.05;;;5.70;23.00;;;;;;5042538;28;20197;-81
2024/02/23 04:53:52;;;;;;;16.97;2.10;;;5.70;22.30;;;;;;5041256;28;20165;-81
2024/02/23 04:56:19;;;;;;;14.90;1.30;;;5.70;18.80;;;;;;5042459;28;20527;-81
2024/02/23 04:58:45;;;;;;;16.30;1.38;;;5.70;18.90;;;;;;5041992;28;20189;-81
2024/02/23 05:01:10;;;;;;;16.17;1.43;;;5.70;23.90;;;;;;5042145;28;20182;-81
2024/02/23 05:03:37;;;;;;;14.93;1.60;;;5.60;18.50;;;;;;5042506;28;20165;-81
2024/02/23 05:06:04;;;;;;;16.45;1.63;;;5.60;16.20;;;;;;5041972;28;20223;-81
2024/02/23 05:08:30;;;;;;;14.20;1.05;;;5.60;21.40;;;;;;5022709;28;20174;-81
2024/02/23 05:10:56;;;;;;;14.80;1.40;;;5.60;14.00;;;;;;5039215;28;20190;-81
2024/02/23 05:13:22;;;;;;;19.55;1.75;;;5.50;25.90;;;;;;5039943;28;20181;-81
2024/02/23 05:15:48;;;;;;;14.82;1.40;;;5.50;19.80;;;;;;5040345;28;20193;-81
2024/02/23 05:18:14;;;;;;;14.40;1.47;;;5.50;18.90;;;;;;5040224;28;20563;-81
2024/02/23 05:20:39;;;;;;;15.63;1.40;;;5.50;25.60;;;;;;5040194;28;20193;-81
2024/02/23 05:23:05;;;;;;;17.37;1.80;;;5.50;25.70;;;;;;5038912;28;20249;-81
2024/02/23 05:25:31;;;;;;;14.40;1.30;;;5.50;25.80;;;;;;5039715;28;20431;-81
2024/02/23 05:27:56;;;;;;;17.43;1.90;;;5.50;22.90;;;;;;5040861;28;20166;-81
2024/02/23 05:30:22;;;;;;;15.97;1.73;;;5.50;26.50;;;;;;5039595;28;20218;-81
2024/02/23 05:32:48;;;;;;;15.87;1.30;;;5.60;20.50;;;;;;5039028;28;20198;-80
2024/02/23 05:35:14;;;;;;;17.00;1.70;;;5.60;24.70;;;;;;5038447;28;20193;-80
2024/02/23 05:37:41;;;;;;;14.80;1.52;;;5.60;15.30;;;;;;5038394;28;20169;-80
2024/02/23 05:40:10;;;;;;;13.73;1.00;;;5.50;18.70;;;;;;5038647;28;20245;-80
2024/02/23 05:42:36;;;;;;;14.40;1.25;;;5.50;21.50;;;;;;5039000;28;20173;-81
2024/02/23 05:45:04;;;;;;;15.77;1.92;;;5.50;26.60;;;;;;5038423;28;20167;-81
2024/02/23 05:47:30;;;;;;;19.65;1.85;;;5.40;33.80;;;;;;5020404;28;20174;-80
2024/02/23 05:49:56;;;;;;;16.38;1.52;;;5.40;32.60;;;;;;5037659;28;20204;-80
2024/02/23 05:52:22;;;;;;;13.60;1.00;;;5.40;29.90;;;;;;5037677;28;20670;-80
2024/02/23 05:54:47;;;;;;;15.93;1.47;;;5.40;37.20;;;;;;5037308;28;20189;-80
2024/02/23 05:57:13;;;;;;;17.07;1.20;;;5.50;31.80;;;;;;5037989;28;20174;-81
2024/02/23 05:59:38;;;;;;;15.00;1.20;;;5.50;33.80;;;;;;5037266;28;20173;-80
2024/02/23 06:02:04;;;;;;;14.70;1.30;;;5.50;29.10;;;;;;5037634;28;20241;-80
2024/02/23 06:04:30;;;;;;;16.87;1.03;;;5.50;23.80;;;;;;5037260;28;20172;-81
2024/02/23 06:06:56;;;;;;;15.80;1.10;;;5.40;31.10;;;;;;5037528;28;20162;-80
2024/02/23 06:09:22;;;;;;;16.30;1.50;;;5.50;31.30;;;;;;5037156;28;20162;-81
2024/02/23 06:11:47;;;;;;;15.27;1.13;;;5.50;28.70;;;;;;5037643;28;20224;-80
2024/02/23 06:14:13;;;;;;;15.40;1.50;;;5.60;25.70;;;;;;5037414;28;20212;-80
2024/02/23 06:16:40;;;;;;;16.02;1.40;;;5.70;21.60;;;;;;5037006;28;20278;-80
2024/02/23 06:19:06;;;;;;;15.98;1.45;;;5.60;22.90;;;;;;5037167;28;20194;-80
2024/02/23 06:21:32;;;;;;;14.70;1.63;;;5.60;20.80;;;;;;5035726;28;20692;-80
2024/02/23 06:23:58;;;;;;;14.50;1.50;;;5.40;24.80;;;;;;5036543;28;20920;-81
2024/02/23 06:26:23;;;;;;;15.70;1.80;;;5.50;29.50;;;;;;5036657;28;20174;-80
2024/02/23 06:28:49;;;;;;;16.23;1.57;;;5.40;26.00;;;;;;5037416;28;20174;-80
2024/02/23 06:31:15;;;;;;;15.57;1.57;;;5.40;24.80;;;;;;5036310;28;20269;-80
2024/02/23 06:33:40;;;;;;;16.40;1.50;;;5.40;29.40;;;;;;5036825;28;20173;-80
2024/02/23 06:36:07;;;;;;;15.80;1.37;;;5.30;30.10;;;;;;5036187;28;20911;-80
2024/02/23 06:38:33;;;;;;;14.60;1.85;;;5.40;39.60;;;;;;5036507;28;20169;-80
2024/02/23 06:40:59;;;;;;;14.50;1.33;;;5.30;36.60;;;;;;5019711;28;20194;-80
2024/02/23 06:43:25;;;;;;;15.10;1.60;;;5.30;36.60;;;;;;5037455;28;20170;-81
2024/02/23 06:45:51;;;;;;;17.87;1.80;;;5.30;44.40;;;;;;5037369;28;20162;-81
2024/02/23 06:48:17;;;;;;;16.75;1.75;;;5.30;46.70;;;;;;5019424;28;20706;-79
2024/02/23 06:50:42;;;;;;;14.30;1.30;;;5.30;48.60;;;;;;5036908;28;20226;-81
2024/02/23 06:53:08;;;;;;;16.20;1.60;;;5.30;48.80;;;;;;5037202;28;20437;-80
2024/02/23 06:55:37;;;;;;;16.80;1.77;;;5.30;51.70;;;;;;5036563;28;20189;-80
2024/02/23 06:58:04;;;;;;;16.60;1.83;;;5.30;53.80;;;;;;5037047;28;20576;-80
2024/02/23 07:00:31;;;;;;;14.10;1.38;;;5.30;55.80;;;;;;5036732;28;20561;-80
2024/02/23 07:02:58;;;;;;;17.13;1.50;;;5.20;45.90;;;;;;5036344;28;20534;-80
2024/02/23 07:05:25;;;;;;;16.88;1.90;;;5.40;54.10;;;;;;5018743;28;20169;-80
2024/02/23 07:07:51;;;;;;;17.95;1.40;;;5.40;53.70;;;;;;5018418;28;20205;-80
2024/02/23 07:10:18;;;;;;;19.93;2.10;;;5.50;48.70;;;;;;5037213;28;20216;-80
2024/02/23 07:12:44;;;;;;;14.93;1.38;;;5.50;42.80;;;;;;5035211;28;20170;-80
2024/02/23 07:15:10;;;;;;;19.58;1.73;;;5.50;40.90;;;;;;5036137;28;20217;-80
2024/02/23 07:17:35;;;;;;;14.80;1.50;;;5.60;43.10;;;;;;5035276;28;20642;-81
2024/02/23 07:20:05;;;;;;;20.00;2.70;;;5.70;41.10;;;;;;5035836;28;20281;-80
2024/02/23 07:22:34;;;;;;;16.95;1.48;;;5.70;36.00;;;;;;5036743;28;20570;-80
2024/02/23 07:25:01;;;;;;;15.60;1.30;;;5.80;33.30;;;;;;5036961;28;20169;-80
2024/02/23 07:27:27;;;;;;;16.58;1.50;;;5.80;28.40;;;;;;5036348;28;20181;-80
2024/02/23 07:29:53;;;;;;;14.90;1.60;;;5.70;33.90;;;;;;5036293;28;20685;-80
2024/02/23 07:32:19;;;;;;;15.20;1.60;;;5.60;42.90;;;;;;5018738;28;20496;-80
2024/02/23 07:34:45;;;;;;;18.00;2.10;;;5.70;41.60;;;;;;5036932;28;20173;-80
2024/02/23 07:37:10;;;;;;;21.23;1.80;;;5.60;43.00;;;;;;5019014;28;20169;-81
2024/02/23 07:39:36;;;;;;;17.20;1.90;;;5.40;52.40;;;;;;5036508;28;20172;-80
2024/02/23 07:42:03;;;;;;;15.50;2.10;;;5.40;60.80;;;;;;5036543;28;20500;-80
2024/02/23 07:44:28;;;;;;;19.73;1.58;;;5.40;65.60;;;;;;5039779;28;20162;-80
2024/02/23 07:46:55;;;;;;;15.73;1.90;;;5.40;67.50;;;;;;5040450;28;20220;-80
2024/02/23 07:49:22;;;;;;;16.70;1.65;;;5.50;61.30;;;;;;5040211;28;20546;-80
2024/02/23 07:51:48;;;;;;;19.48;1.63;;;5.60;61.40;;;;;;5040379;28;20535;-80
2024/02/23 07:54:14;;;;;;;14.17;1.53;;;5.70;63.90;;;;;;5040146;28;20177;-79
2024/02/23 07:56:42;;;;;;;17.20;1.75;;;5.60;58.10;;;;;;5038969;28;20485;-79
2024/02/23 07:59:08;;;;;;;15.73;1.65;;;5.60;61.70;;;;;;5038945;28;20237;-79
2024/02/23 08:01:34;;;;;;;18.67;1.40;;;5.70;63.10;;;;;;5038570;28;20319;-78
2024/02/23 08:04:00;;;;;;;17.30;1.65;;;5.80;54.60;;;;;;5038709;28;20545;-79
2024/02/23 08:06:25;;;;;;;16.33;2.20;;;5.90;45.40;;;;;;5038640;28;20244;-78
2024/02/23 08:08:53;;;;;;;15.90;1.37;;;6.00;25.30;;;;;;5038730;28;20384;-78
2024/02/23 08:11:19;;;;;;;16.30;1.25;;;6.00;13.60;;;;;;5038259;28;20803;-78
2024/02/23 08:13:45;;;;;;;14.43;1.20;;;6.10;11.20;;;;;;5020864;28;20174;-78
2024/02/23 08:16:10;;;;;;;15.00;1.50;;;6.20;10.90;;;;;;5037713;28;20448;-78
2024/02/23 08:18:36;;;;;;;16.50;1.30;;;6.30;1.00;;;;;;5038394;28;20182;-79
2024/02/23 08:21:02;;;;;;;16.10;1.43;;;6.40;1.00;;;;;;5037568;28;20192;-79
2024/02/23 08:23:29;;;;;;;17.42;1.70;;;6.50;1.00;;;;;;5037107;28;20463;-79
2024/02/23 08:25:56;;;;;;;21.95;1.60;;;6.50;1.00;;;;;;5037891;28;20162;-79
2024/02/23 08:28:23;;;;;;;14.15;1.30;;;6.60;1.00;;;;;;5037752;28;20567;-78
2024/02/23 08:30:49;;;;;;;16.63;1.60;;;6.70;1.00;;;;;;5037723;28;20182;-78
2024/02/23 08:33:14;;;;;;;15.17;1.40;;;6.70;1.00;;;;;;5038185;28;20173;-79
2024/02/23 08:35:40;;;;;;;15.07;1.40;;;6.70;1.00;;;;;;5037942;28;20200;-79
2024/02/23 08:38:06;;;;;;;15.83;1.10;;;6.80;1.00;;;;;;5036593;28;20170;-79
2024/02/23 08:40:32;;;;;;;16.65;1.83;;;6.80;1.00;;;;;;5037861;28;20188;-79
2024/02/23 08:42:58;;;;;;;20.00;2.03;;;6.90;1.00;;;;;;5036542;28;20162;-79
2024/02/23 08:45:24;;;;;;;15.63;1.17;;;6.90;1.00;;;;;;5037267;28;20168;-79
2024/02/23 08:47:49;;;;;;;15.93;1.63;;;7.10;1.00;;;;;;5037320;28;20412;-79
2024/02/23 08:50:15;;;;;;;16.23;1.63;;;7.20;1.00;;;;;;5037529;28;20202;-79
2024/02/23 08:52:41;;;;;;;16.77;1.27;;;7.20;1.00;;;;;;5037427;28;20534;-79
2024/02/23 08:55:07;;;;;;;16.17;1.40;;;7.30;1.00;;;;;;5037091;28;20185;-79
2024/02/23 08:59:58;;;;;;;20.20;1.70;;;7.40;1.00;;;;;;5089090;22;20517;-79
2024/02/23 09:02:24;;;;;;;16.40;1.60;;;7.40;1.00;;;;;;5037611;28;20173;-79
2024/02/23 09:04:50;;;;;;;17.25;1.35;;;7.60;1.00;;;;;;5036417;28;20586;-79
2024/02/23 09:07:19;;;;;;;18.33;1.27;;;7.50;1.00;;;;;;5037580;28;20169;-79
2024/02/23 09:09:45;;;;;;;16.00;1.17;;;7.60;1.00;;;;;;5037418;28;20204;-79
2024/02/23 09:12:12;;;;;;;16.48;1.20;;;7.50;1.00;;;;;;5036581;28;20172;-80
2024/02/23 09:14:38;;;;;;;16.55;1.20;;;7.50;1.00;;;;;;5038838;28;20162;-80
2024/02/23 09:17:05;;;;;;;17.55;1.50;;;7.60;1.00;;;;;;5039385;28;20216;-80
2024/02/23 09:19:31;;;;;;;16.67;1.35;;;7.70;1.00;;;;;;5038379;28;20161;-80
2024/02/23 09:21:57;;;;;;;19.17;1.37;;;7.80;1.00;;;;;;5020984;28;20216;-80
2024/02/23 09:24:22;;;;;;;16.70;1.33;;;7.90;1.00;;;;;;5038566;28;20162;-80
2024/02/23 09:26:48;;;;;;;14.20;1.00;;;7.90;1.00;;;;;;5039014;28;20166;-80
2024/02/23 09:29:14;;;;;;;14.93;1.10;;;8.00;1.00;;;;;;5038959;28;20162;-80
2024/02/23 09:31:39;;;;;;;14.33;1.00;;;8.10;1.00;;;;;;5038854;28;20186;-80
2024/02/23 09:34:05;;;;;;;13.80;1.00;;;8.20;1.00;;;;;;5039018;28;20404;-80
2024/02/23 09:36:31;;;;;;;22.73;1.70;;;8.10;1.00;;;;;;5038794;28;20189;-80
2024/02/23 09:38:56;;;;;;;14.57;1.10;;;8.00;1.00;;;;;;5021212;28;20173;-80
2024/02/23 09:41:23;;;;;;;15.07;1.40;;;8.10;1.00;;;;;;5020948;28;20582;-80
2024/02/23 09:43:50;;;;;;;14.40;0.93;;;8.10;1.00;;;;;;5036709;28;20166;-80
2024/02/23 09:46:17;;;;;;;16.45;1.50;;;8.20;1.00;;;;;;5038389;28;20514;-80
2024/02/23 09:48:47;;;;;;;17.13;1.25;;;8.10;1.00;;;;;;5037856;28;20646;-80
2024/02/23 09:51:15;;;;;;;17.20;1.40;;;8.20;1.00;;;;;;5038755;28;20536;-80
2024/02/23 09:53:45;;;;;;;14.93;1.00;;;8.30;1.00;;;;;;5038479;28;20166;-80
2024/02/23 09:56:10;;;;;;;13.90;1.20;;;8.40;1.00;;;;;;5037940;28;20189;-80
2024/02/23 09:58:39;;;;;;;14.20;1.13;;;8.30;1.00;;;;;;5035829;28;20181;-78
2024/02/23 10:01:04;;;;;;;15.85;0.95;;;8.40;1.00;;;;;;5038255;28;20782;-80
2024/02/23 10:03:30;;;;;;;14.10;1.10;;;8.50;1.00;;;;;;5038017;28;20241;-80
2024/02/23 10:06:01;;;;;;;19.03;1.40;;;8.60;1.00;;;;;;5036846;28;20166;-80
2024/02/23 10:08:28;;;;;;;15.95;1.30;;;8.70;1.00;;;;;;5036460;28;20401;-80
2024/02/23 10:10:55;;;;;;;14.10;1.30;;;8.70;1.00;;;;;;5037996;28;20190;-80
2024/02/23 10:13:26;;;;;;;15.48;1.20;;;8.80;1.00;;;;;;5038289;28;20158;-80
2024/02/23 10:15:52;;;;;;;15.10;1.45;;;8.90;1.00;;;;;;5037869;28;20182;-80
2024/02/23 10:18:21;;;;;;;22.02;1.27;;;9.10;1.00;;;;;;5036835;28;20192;-80
2024/02/23 10:20:47;;;;;;;14.98;1.25;;;9.10;1.00;;;;;;5037899;28;20190;-80
2024/02/23 10:23:13;;;;;;;15.63;1.40;;;9.10;1.00;;;;;;5037881;28;20166;-80
2024/02/23 10:25:39;;;;;;;21.30;0.97;;;9.20;1.00;;;;;;5038126;28;20248;-80
2024/02/23 10:28:06;;;;;;;14.30;1.10;;;9.10;1.00;;;;;;5038020;28;20401;-80
2024/02/23 10:30:32;;;;;;;14.70;1.25;;;9.00;1.00;;;;;;5037434;28;20190;-80
2024/02/23 10:32:59;;;;;;;14.85;1.23;;;9.10;1.00;;;;;;5036871;28;20666;-79
2024/02/23 10:35:25;;;;;;;13.82;0.90;;;9.20;1.00;;;;;;5035090;28;20555;-79
2024/02/23 10:37:53;;;;;;;16.25;1.05;;;9.40;1.00;;;;;;5035909;28;20249;-79
2024/02/23 10:40:20;;;;;;;15.38;1.25;;;9.60;1.00;;;;;;5035906;28;20185;-78
2024/02/23 10:42:53;;;;;;;15.98;1.20;;;9.70;1.00;;;;;;5036117;28;20170;-79
2024/02/23 10:45:23;;;;;;;13.57;0.93;;;9.60;1.00;;;;;;5035800;28;20150;-79
2024/02/23 10:47:51;;;;;;;13.90;1.05;;;9.40;1.00;;;;;;5036478;28;20165;-79
2024/02/23 10:50:19;;;;;;;15.45;1.38;;;9.30;1.00;;;;;;5035684;28;20719;-79
2024/02/23 10:52:46;;;;;;;14.68;0.98;;;9.60;1.00;;;;;;5036212;28;20166;-79
2024/02/23 10:55:14;;;;;;;14.20;0.90;;;9.50;1.00;;;;;;5036144;28;20189;-80
2024/02/23 10:57:40;;;;;;;14.40;1.25;;;9.70;1.00;;;;;;5036930;28;20188;-79
2024/02/23 11:00:11;;;;;;;14.30;1.27;;;9.90;1.00;;;;;;5035743;28;20669;-79
2024/02/23 11:02:41;;;;;;;14.18;1.20;;;10.00;1.00;;;;;;5036131;28;20944;-80
2024/02/23 11:05:09;;;;;;;15.15;1.15;;;10.10;1.00;;;;;;5035731;28;20602;-79
2024/02/23 11:07:39;;;;;;;15.73;1.45;;;10.10;1.00;;;;;;5035023;28;20201;-80
2024/02/23 11:10:06;;;;;;;14.52;1.00;;;10.10;1.00;;;;;;5019095;28;20201;-80
2024/02/23 11:12:33;;;;;;;14.30;1.17;;;10.00;1.00;;;;;;5037287;28;20170;-80
2024/02/23 11:15:01;;;;;;;15.15;1.00;;;9.90;1.00;;;;;;5036461;28;20197;-80
2024/02/23 11:17:30;;;;;;;14.85;0.90;;;10.10;1.00;;;;;;5037216;28;20203;-80
2024/02/23 11:19:59;;;;;;;15.50;1.38;;;10.30;1.00;;;;;;5036746;28;20189;-80
2024/02/23 11:22:31;;;;;;;15.30;1.20;;;10.40;1.00;;;;;;5036998;28;20249;-81
2024/02/23 11:25:03;;;;;;;13.90;0.82;;;10.40;1.00;;;;;;5036208;28;20165;-80
2024/02/23 11:27:33;;;;;;;14.02;1.13;;;10.40;1.00;;;;;;5036807;28;20253;-80
2024/02/23 11:30:05;;;;;;;15.52;1.08;;;10.40;1.00;;;;;;5035305;28;20192;-80
2024/02/23 11:32:43;;;;;;;18.25;1.40;;;10.60;1.00;;;;;;5035397;28;20168;-79
2024/02/23 11:35:13;;;;;;;14.30;1.27;;;10.50;1.00;;;;;;5017271;28;20574;-79
2024/02/23 11:37:48;;;;;;;16.38;1.60;;;10.40;1.00;;;;;;5035782;28;20590;-79
2024/02/23 11:40:16;;;;;;;16.00;1.10;;;10.10;1.00;;;;;;5035142;28;20208;-80
2024/02/23 11:42:43;;;;;;;15.45;1.17;;;10.00;1.00;;;;;;5035682;28;20161;-79
2024/02/23 11:45:10;;;;;;;19.30;1.27;;;9.90;1.00;;;;;;5035857;28;20666;-79
2024/02/23 11:47:37;;;;;;;18.63;1.30;;;9.80;1.00;;;;;;5035932;28;20193;-80
2024/02/23 11:50:03;;;;;;;13.95;1.30;;;10.10;1.00;;;;;;5035381;28;20264;-80
2024/02/23 11:52:30;;;;;;;13.75;1.15;;;10.10;1.00;;;;;;5035853;28;20180;-80
2024/02/23 11:54:56;;;;;;;14.38;1.20;;;10.00;1.00;;;;;;5040696;28;20166;-80
2024/02/23 11:57:22;;;;;;;16.88;1.30;;;10.00;1.00;;;;;;5039291;28;20166;-80
2024/02/23 11:59:50;;;;;;;19.63;1.40;;;9.80;1.00;;;;;;5038768;28;20209;-80
2024/02/23 12:02:15;;;;;;;14.30;1.25;;;9.70;1.00;;;;;;5038453;28;20761;-80
2024/02/23 12:04:41;;;;;;;15.80;1.00;;;9.70;1.00;;;;;;5038419;28;20182;-80
2024/02/23 12:07:10;;;;;;;13.63;1.03;;;9.80;1.00;;;;;;5038174;28;20249;-80
2024/02/23 12:09:36;;;;;;;15.30;1.23;;;9.80;1.00;;;;;;5038495;28;20225;-80
2024/02/23 12:12:02;;;;;;;16.57;1.27;;;10.00;1.00;;;;;;5037783;28;20193;-80
2024/02/23 12:14:28;;;;;;;14.60;1.23;;;10.00;1.00;;;;;;5038066;28;20241;-80
2024/02/23 12:16:53;;;;;;;16.97;1.03;;;10.00;1.00;;;;;;5037815;28;20220;-79
2024/02/23 12:19:19;;;;;;;19.20;1.20;;;9.90;1.00;;;;;;5036841;28;20478;-80
2024/02/23 12:21:47;;;;;;;15.23;1.50;;;9.70;1.00;;;;;;5038894;28;20188;-80
2024/02/23 12:24:13;;;;;;;18.27;1.23;;;9.80;1.00;;;;;;5038687;28;20162;-80
2024/02/23 12:26:39;;;;;;;14.20;1.17;;;10.00;1.00;;;;;;5038938;28;20195;-80
2024/02/23 12:29:05;;;;;;;14.27;1.23;;;10.00;1.00;;;;;;5039011;28;20412;-80
2024/02/23 12:31:32;;;;;;;22.05;1.80;;;10.00;1.00;;;;;;5041460;28;20419;-80
2024/02/23 12:33:58;;;;;;;18.73;1.60;;;10.00;1.00;;;;;;5041129;28;20170;-80
2024/02/23 12:36:23;;;;;;;16.43;1.23;;;10.20;1.00;;;;;;5039833;28;20204;-80
2024/02/23 12:38:49;;;;;;;19.70;1.57;;;10.10;1.00;;;;;;5040005;28;20428;-80
2024/02/23 12:41:15;;;;;;;15.10;0.97;;;10.10;1.00;;;;;;5040421;28;20247;-80
2024/02/23 12:43:40;;;;;;;15.67;1.20;;;10.10;1.00;;;;;;5039934;28;20172;-80
2024/02/23 12:46:08;;;;;;;20.67;1.37;;;10.30;1.00;;;;;;5038937;28;20552;-80
2024/02/23 12:48:35;;;;;;;16.65;1.83;;;10.50;1.00;;;;;;5039897;28;20165;-80